Time;durP1;ratioP1;P1;durP2;ratioP2;P2;SDS_P1;SDS_P2;PMS_P1;PMS_P2;Temp;Humidity;BMP_temperature;BMP_pressure;BME280_temperature;BME280_humidity;BME280_pressure;Samples;Min_cycle;Max_cycle;Signal;HPM_P1;HPM_P2
2021/12/06 09:29:13;;;;;;;7.53;3.53;;;;;;;3.15;100.00;98783.69;5148150;27;20575;-83
2021/12/06 09:31:41;;;;;;;6.23;3.67;;;;;;;3.67;100.00;98776.63;5130962;27;38933;-81
2021/12/06 09:34:10;;;;;;;5.63;3.23;;;;;;;4.34;100.00;98785.44;5147760;27;41521;-83
2021/12/06 09:36:38;;;;;;;5.33;3.27;;;;;;;4.63;100.00;98771.19;5130400;27;41708;-85
2021/12/06 09:39:07;;;;;;;3.13;2.77;;;;;;;5.05;98.19;98794.00;5131193;27;41610;-86
2021/12/06 09:41:36;;;;;;;7.00;3.70;;;;;;;5.17;95.13;98776.88;5113489;27;40495;-89
2021/12/06 09:44:06;;;;;;;3.90;2.50;;;;;;;5.46;92.84;98799.25;5118262;27;40866;-83
2021/12/06 09:46:37;;;;;;;3.77;2.27;;;;;;;5.62;91.05;98795.06;5149037;27;42490;-83
2021/12/06 09:49:08;;;;;;;4.47;3.00;;;;;;;5.71;88.99;98806.00;5147726;27;42549;-84
2021/12/06 09:51:38;;;;;;;3.60;2.90;;;;;;;5.84;88.09;98808.09;5148269;27;40985;-84
2021/12/06 09:54:07;;;;;;;4.37;2.90;;;;;;;5.97;87.73;98804.91;5113242;27;40505;-86
2021/12/06 09:56:38;;;;;;;2.60;2.40;;;;;;;6.07;86.83;98806.19;5112773;27;41255;-83
2021/12/06 09:59:09;;;;;;;3.27;2.27;;;;;;;6.11;85.72;98785.88;5129910;27;43248;-85
2021/12/06 10:01:47;;;;;;;3.73;2.10;;;;;;;6.33;85.17;98796.25;5129167;27;39914;-84
2021/12/06 10:04:16;;;;;;;4.27;3.00;;;;;;;6.36;84.12;98785.59;5111971;27;42103;-82
2021/12/06 10:06:46;;;;;;;5.00;3.37;;;;;;;6.53;83.47;98796.19;5129766;27;41705;-83
2021/12/06 10:09:14;;;;;;;7.33;3.73;;;;;;;6.65;82.71;98806.16;5133169;27;42481;-83
2021/12/06 10:11:43;;;;;;;5.17;3.00;;;;;;;6.71;81.98;98799.72;5146694;27;38851;-84
2021/12/06 10:14:12;;;;;;;5.23;3.00;;;;;;;6.66;81.56;98771.03;5129306;27;40695;-84
2021/12/06 10:16:42;;;;;;;6.70;3.40;;;;;;;6.99;81.45;98793.97;5118194;27;41464;-84
2021/12/06 10:19:10;;;;;;;4.93;2.87;;;;;;;7.12;80.36;98790.69;5111494;27;41080;-87
2021/12/06 10:21:39;;;;;;;5.50;3.27;;;;;;;7.10;80.38;98758.28;5130158;27;39296;-85
2021/12/06 10:24:10;;;;;;;5.97;3.97;;;;;;;7.29;80.14;98770.56;5129858;27;40882;-86
2021/12/06 10:26:38;;;;;;;5.93;3.73;;;;;;;7.49;79.75;98778.28;5112619;27;41996;-85
2021/12/06 10:29:07;;;;;;;5.47;3.60;;;;;;;7.60;78.25;98786.50;5128961;27;40890;-84
2021/12/06 10:31:42;;;;;;;5.73;3.77;;;;;;;7.70;78.18;98773.69;5112726;27;39184;-85
2021/12/06 10:34:14;;;;;;;14.03;6.83;;;;;;;7.86;77.40;98778.06;5112616;27;40663;-85
2021/12/06 10:36:42;;;;;;;11.23;5.17;;;;;;;7.96;76.45;98754.69;5112932;27;42044;-82
2021/12/06 10:39:10;;;;;;;11.70;4.53;;;;;;;8.18;75.66;98751.75;5102650;28;40988;-83
2021/12/06 10:41:48;;;;;;;7.27;4.00;;;;;;;8.28;75.68;98751.16;5095817;28;39027;-82
2021/12/06 10:44:16;;;;;;;5.83;4.40;;;;;;;8.44;74.21;98763.56;5095424;28;41769;-83
2021/12/06 10:46:48;;;;;;;7.23;4.27;;;;;;;8.44;74.43;98745.06;5096241;27;42794;-82
2021/12/06 10:49:20;;;;;;;7.33;4.13;;;;;;;8.78;73.00;98763.34;5115836;27;41051;-83
2021/12/06 10:51:48;;;;;;;7.57;4.03;;;;;;;9.06;72.60;98749.44;5138009;27;39218;-79
2021/12/06 10:54:28;;;;;;;7.80;3.80;;;;;;;9.43;72.03;98761.34;5140694;27;41967;-83
2021/12/06 10:56:59;;;;;;;6.50;4.53;;;;;;;9.48;70.81;98748.72;5140107;27;44343;-87
2021/12/06 10:59:31;;;;;;;6.50;3.97;;;;;;;9.69;69.63;98762.41;5140421;27;41766;-85
2021/12/06 11:02:07;;;;;;;6.57;4.30;;;;;;;9.57;69.49;98764.00;5155886;27;41366;-86
2021/12/06 11:04:35;;;;;;;9.03;5.70;;;;;;;9.52;69.70;98763.41;5124091;27;43012;-86
2021/12/06 11:07:06;;;;;;;7.97;4.73;;;;;;;9.53;69.45;98741.34;5117102;27;43233;-86
2021/12/06 11:09:36;;;;;;;7.50;4.47;;;;;;;10.16;68.78;98738.34;5121319;27;41401;-83
2021/12/06 11:12:07;;;;;;;7.63;4.57;;;;;;;11.16;65.48;98750.38;5123709;27;39231;-86
2021/12/06 11:14:38;;;;;;;6.63;4.00;;;;;;;11.37;63.66;98763.16;5119767;27;41302;-83
2021/12/06 11:17:09;;;;;;;6.63;4.30;;;;;;;11.35;63.92;98754.47;5116706;27;42497;-85
2021/12/06 11:19:38;;;;;;;8.40;3.83;;;;;;;10.96;63.40;98758.81;5099165;27;41336;-84
2021/12/06 11:22:08;;;;;;;6.97;3.20;;;;;;;10.83;63.22;98768.50;5097895;27;39084;-84
2021/12/06 11:24:39;;;;;;;8.10;3.93;;;;;;;10.70;64.34;98776.38;5101302;27;40581;-84
2021/12/06 11:27:10;;;;;;;6.53;4.37;;;;;;;10.19;63.94;98767.28;5131514;27;43182;-84
2021/12/06 11:29:40;;;;;;;4.93;3.57;;;;;;;9.91;65.43;98769.91;5115933;27;42424;-84
2021/12/06 11:32:13;;;;;;;5.37;3.67;;;;;;;9.56;65.65;98753.53;5099288;27;38969;-86
2021/12/06 11:34:44;;;;;;;5.57;3.27;;;;;;;9.41;65.80;98755.28;5098091;27;40399;-88
2021/12/06 11:37:15;;;;;;;4.50;3.83;;;;;;;9.45;65.89;98770.03;5114770;27;42969;-91
2021/12/06 11:39:51;;;;;;;5.80;3.93;;;;;;;9.22;66.33;98758.19;5098425;27;41310;-85
2021/12/06 11:42:19;;;;;;;5.70;3.77;;;;;;;9.15;66.33;98771.84;5114474;27;38810;-85
2021/12/06 11:44:47;;;;;;;8.43;4.13;;;;;;;8.86;66.78;98745.31;5098411;27;41746;-85
2021/12/06 11:47:18;;;;;;;5.87;3.60;;;;;;;8.83;67.20;98752.53;5097245;27;41602;-85
2021/12/06 11:49:51;;;;;;;5.43;3.73;;;;;;;8.61;67.80;98739.72;5097751;27;41339;-85
2021/12/06 11:52:21;;;;;;;5.93;3.70;;;;;;;8.45;67.88;98734.44;5128440;27;39782;-83
2021/12/06 11:54:52;;;;;;;10.13;4.10;;;;;;;8.12;67.69;98704.63;5115311;27;41857;-86
2021/12/06 11:57:24;;;;;;;6.40;4.07;;;;;;;8.20;68.55;98739.34;5108985;27;42656;-86
2021/12/06 11:59:58;;;;;;;4.40;3.10;;;;;;;8.17;68.85;98756.19;5114331;27;41234;-86
2021/12/06 12:02:46;;;;;;;6.90;3.63;;;;;;;8.06;68.99;98758.53;5098196;27;38836;-84
2021/12/06 12:05:26;;;;;;;7.73;4.43;;;;;;;7.97;68.79;98766.09;5130603;27;40566;-85
2021/12/06 12:08:01;;;;;;;8.30;4.77;;;;;;;7.92;69.19;98776.88;5132560;27;43121;-82
2021/12/06 12:10:31;;;;;;;6.20;3.97;;;;;;;7.86;69.61;98778.06;5096980;27;42371;-87
2021/12/06 12:12:59;;;;;;;7.87;5.03;;;;;;;7.79;69.30;98754.78;5096903;27;39392;-86
2021/12/06 12:15:27;;;;;;;6.13;4.33;;;;;;;7.94;69.26;98775.88;5096210;27;41524;-85
2021/12/06 12:17:56;;;;;;;7.37;4.47;;;;;;;7.92;69.12;98771.59;5096962;27;42995;-84
2021/12/06 12:20:24;;;;;;;8.43;5.03;;;;;;;7.86;69.64;98764.03;5096834;27;42109;-86
2021/12/06 12:22:55;;;;;;;6.70;4.10;;;;;;;7.80;69.69;98761.72;5109891;27;40477;-84
2021/12/06 12:25:30;;;;;;;5.63;3.73;;;;;;;7.90;69.75;98778.78;5113540;27;41797;-84
2021/12/06 12:28:05;;;;;;;8.33;4.53;;;;;;;7.83;69.40;98777.38;5124661;27;43874;-84
2021/12/06 12:30:35;;;;;;;9.50;5.37;;;;;;;7.76;69.62;98773.38;5114151;27;41158;-83
2021/12/06 12:33:07;;;;;;;7.17;4.20;;;;;;;7.61;69.52;98742.53;5131544;27;40897;-84
2021/12/06 12:35:41;;;;;;;8.63;4.73;;;;;;;7.60;70.15;98738.19;5110649;27;40668;-82
2021/12/06 12:38:11;;;;;;;8.63;5.10;;;;;;;7.61;69.75;98739.91;5087239;27;42908;-83
2021/12/06 12:40:43;;;;;;;8.77;4.17;;;;;;;7.63;69.71;98730.13;5082567;28;41174;-85
2021/12/06 12:43:13;;;;;;;5.33;3.43;;;;;;;7.74;69.78;98738.34;5075933;27;38981;-86
2021/12/06 12:45:43;;;;;;;8.20;4.10;;;;;;;7.69;70.14;98740.34;5081184;27;41107;-84
2021/12/06 12:48:15;;;;;;;9.03;4.53;;;;;;;7.57;70.23;98734.78;5112459;27;42153;-84
2021/12/06 12:51:00;;;;;;;4.83;3.40;;;;;;;7.44;70.32;98725.81;5113004;27;41316;-83
2021/12/06 12:53:28;;;;;;;8.30;4.47;;;;;;;7.36;70.40;98735.91;5108406;27;39348;-87
2021/12/06 12:55:55;;;;;;;6.97;4.40;;;;;;;7.26;70.39;98734.69;5095220;27;40751;-84
2021/12/06 12:58:25;;;;;;;7.30;3.63;;;;;;;7.18;70.85;98721.88;5084502;28;41960;-86
2021/12/06 13:00:58;;;;;;;4.23;3.43;;;;;;;7.30;71.00;98736.22;5091831;27;41323;-82
2021/12/06 13:03:32;;;;;;;7.87;4.27;;;;;;;7.38;70.58;98734.06;5095041;27;39501;-84
2021/12/06 13:06:23;;;;;;;6.73;4.23;;;;;;;7.23;70.77;98729.56;5112454;27;41749;-84
2021/12/06 13:08:54;;;;;;;4.90;4.20;;;;;;;7.28;70.92;98738.09;5095046;27;42887;-82
2021/12/06 13:11:24;;;;;;;6.60;3.90;;;;;;;7.29;71.08;98734.53;5091357;27;42358;-84
2021/12/06 13:13:52;;;;;;;7.30;4.37;;;;;;;7.25;71.17;98725.06;5075054;28;39596;-84
2021/12/06 13:16:31;;;;;;;7.43;4.13;;;;;;;7.20;71.19;98720.03;5084660;28;41723;-86
2021/12/06 13:19:14;;;;;;;7.30;4.07;;;;;;;7.32;71.25;98726.44;5091616;27;42984;-85
2021/12/06 13:22:08;;;;;;;7.33;3.60;;;;;;;7.33;71.12;98725.53;5084164;28;41007;-85
2021/12/06 13:24:57;;;;;;;6.67;4.00;;;;;;;7.30;70.78;98732.72;5092436;28;39351;-85
2021/12/06 13:27:41;;;;;;;6.03;3.83;;;;;;;7.24;71.16;98733.91;5095464;27;40271;-82
2021/12/06 13:30:17;;;;;;;9.10;5.60;;;;;;;7.06;71.01;98722.50;5102894;27;42718;-85
2021/12/06 13:32:48;;;;;;;5.83;3.63;;;;;;;7.11;71.42;98736.31;5093015;27;40779;-84
2021/12/06 13:35:33;;;;;;;6.87;3.53;;;;;;;6.96;71.47;98716.00;5090165;27;39182;-85
2021/12/06 13:38:20;;;;;;;5.97;3.83;;;;;;;7.03;71.78;98735.00;5104161;28;40542;-84
2021/12/06 13:41:13;;;;;;;7.90;4.03;;;;;;;7.02;71.97;98735.91;5081872;27;42085;-81
2021/12/06 13:43:45;;;;;;;8.00;4.07;;;;;;;6.99;72.07;98725.53;5112146;27;42433;-81
2021/12/06 13:46:23;;;;;;;7.83;3.90;;;;;;;7.00;72.28;98732.50;5130895;27;39904;-82
2021/12/06 13:48:55;;;;;;;5.40;2.97;;;;;;;6.94;72.12;98727.53;5094941;27;40592;-81
2021/12/06 13:51:48;;;;;;;4.43;3.27;;;;;;;6.90;72.35;98731.25;5111811;27;41743;-80
2021/12/06 13:54:19;;;;;;;5.50;3.50;;;;;;;6.85;72.68;98740.22;5093922;27;44228;-81
2021/12/06 13:56:50;;;;;;;5.77;3.53;;;;;;;6.68;72.57;98708.63;5111977;27;38972;-82
2021/12/06 13:59:20;;;;;;;6.80;4.40;;;;;;;6.81;72.58;98732.56;5094971;27;41838;-84
2021/12/06 14:01:49;;;;;;;6.40;3.97;;;;;;;6.65;72.76;98705.31;5094901;27;41753;-80
2021/12/06 14:04:21;;;;;;;5.97;3.70;;;;;;;6.78;72.50;98728.31;5094644;27;42139;-86
2021/12/06 14:06:53;;;;;;;8.00;4.40;;;;;;;6.72;72.71;98719.84;5079486;28;40088;-85
2021/12/06 14:09:27;;;;;;;8.00;3.63;;;;;;;6.77;72.69;98721.34;5073577;27;40856;-83
2021/12/06 14:11:56;;;;;;;6.00;3.97;;;;;;;6.64;73.01;98712.34;5109364;27;42898;-83
2021/12/06 14:14:26;;;;;;;7.33;2.97;;;;;;;6.73;73.07;98725.03;5095967;27;41025;-83
2021/12/06 14:16:55;;;;;;;7.53;3.77;;;;;;;6.70;73.22;98714.66;5098960;28;38318;-84
2021/12/06 14:19:26;;;;;;;7.40;4.23;;;;;;;6.69;73.45;98715.59;5084328;27;41702;-84
2021/12/06 14:21:57;;;;;;;5.47;4.30;;;;;;;6.69;73.62;98712.94;5098358;27;41932;-83
2021/12/06 14:24:27;;;;;;;6.47;3.97;;;;;;;6.73;73.29;98714.50;5098102;27;41556;-82
2021/12/06 14:26:55;;;;;;;7.93;4.53;;;;;;;6.76;73.23;98724.91;5099387;28;39980;-83
2021/12/06 14:29:26;;;;;;;7.37;4.13;;;;;;;6.71;73.38;98721.63;5097234;27;41059;-83
2021/12/06 14:31:56;;;;;;;8.77;4.57;;;;;;;6.62;73.78;98722.09;5106995;28;42433;-83
2021/12/06 14:34:30;;;;;;;8.40;5.07;;;;;;;6.54;74.00;98724.25;5094047;28;42211;-83
2021/12/06 14:37:06;;;;;;;5.60;4.00;;;;;;;6.47;74.26;98723.66;5094261;27;39237;-82
2021/12/06 14:39:36;;;;;;;7.37;4.07;;;;;;;6.36;74.37;98711.97;5080589;27;42199;-84
2021/12/06 14:42:06;;;;;;;8.60;4.97;;;;;;;6.38;74.24;98724.13;5072818;28;42165;-84
2021/12/06 14:44:38;;;;;;;7.23;5.00;;;;;;;6.24;74.56;98695.00;5077677;28;42752;-84
2021/12/06 14:47:07;;;;;;;9.40;4.43;;;;;;;6.22;74.41;98702.09;5095738;27;39134;-84
2021/12/06 14:49:37;;;;;;;7.93;4.33;;;;;;;6.17;74.44;98688.34;5096942;27;41239;-86
2021/12/06 14:52:15;;;;;;;9.90;5.30;;;;;;;6.23;74.76;98702.94;5088699;28;43458;-85
2021/12/06 14:55:16;;;;;;;7.17;4.17;;;;;;;6.28;74.66;98707.09;5077731;28;42231;-84
2021/12/06 14:57:44;;;;;;;8.20;3.90;;;;;;;6.22;74.59;98717.03;5084913;27;39709;-83
2021/12/06 15:00:17;;;;;;;7.10;3.80;;;;;;;6.23;74.72;98716.09;5085772;28;40893;-83
2021/12/06 15:02:52;;;;;;;4.30;3.13;;;;;;;6.09;74.77;98701.81;5109843;27;41955;-90
2021/12/06 15:05:23;;;;;;;4.67;3.20;;;;;;;6.06;74.75;98701.94;5111105;27;41224;-83
2021/12/06 15:07:55;;;;;;;4.70;2.93;;;;;;;6.06;74.68;98712.47;5078622;28;40228;-83
2021/12/06 15:10:23;;;;;;;3.93;2.63;;;;;;;5.79;74.58;98671.69;5080675;27;40896;-83
2021/12/06 15:12:54;;;;;;;3.60;2.27;;;;;;;5.92;74.56;98703.53;5132711;27;42673;-81
2021/12/06 15:15:29;;;;;;;4.87;3.20;;;;;;;5.91;74.37;98717.59;5093043;27;40988;-81
2021/12/06 15:17:59;;;;;;;5.03;3.40;;;;;;;5.78;74.17;98707.63;5128438;27;39923;-82
2021/12/06 15:20:30;;;;;;;3.87;2.77;;;;;;;5.61;74.45;98683.03;5113647;27;41052;-82
2021/12/06 15:23:02;;;;;;;4.07;2.60;;;;;;;5.89;74.36;98729.97;5113737;27;43407;-82
2021/12/06 15:25:30;;;;;;;3.97;2.80;;;;;;;5.82;74.45;98720.59;5108743;27;42196;-82
2021/12/06 15:27:58;;;;;;;3.73;2.60;;;;;;;5.64;74.53;98704.75;5092375;27;39244;-85
2021/12/06 15:30:30;;;;;;;3.03;2.73;;;;;;;5.80;74.61;98743.50;5112259;27;43110;-81
2021/12/06 15:33:02;;;;;;;4.97;3.50;;;;;;;5.76;74.48;98735.75;5097906;27;41608;-83
2021/12/06 15:35:32;;;;;;;5.33;3.10;;;;;;;5.77;74.67;98741.84;5097333;27;41123;-83
2021/12/06 15:38:14;;;;;;;3.53;2.83;;;;;;;5.63;74.74;98717.97;5097820;27;39105;-83
2021/12/06 15:40:43;;;;;;;3.67;2.60;;;;;;;5.73;74.64;98741.13;5096204;27;41000;-87
2021/12/06 15:43:11;;;;;;;3.77;2.80;;;;;;;5.66;74.52;98728.34;5078048;27;41629;-83
2021/12/06 15:45:39;;;;;;;5.57;3.23;;;;;;;5.56;74.82;98727.06;5082462;27;41487;-82
2021/12/06 15:48:09;;;;;;;3.30;3.00;;;;;;;5.65;74.85;98742.41;5114277;27;40152;-82
2021/12/06 15:50:39;;;;;;;6.73;4.23;;;;;;;5.50;74.95;98711.53;5096061;27;41074;-86
2021/12/06 15:53:15;;;;;;;5.60;3.60;;;;;;;5.55;74.69;98720.09;5096489;27;41759;-83
2021/12/06 15:55:44;;;;;;;10.30;4.13;;;;;;;5.43;74.52;98702.25;5090509;28;41265;-83
2021/12/06 15:58:18;;;;;;;4.57;3.50;;;;;;;5.41;74.55;98712.81;5093697;27;40290;-83
2021/12/06 16:00:51;;;;;;;7.67;3.53;;;;;;;5.46;74.54;98726.56;5113618;27;41870;-84
